Terminal Aerodrome Forecast
Issued by NWS

Home | Current Version | Previous Version | Text Only | Print | Product List | Glossary On
Versions: 1 2 3 4 5 6 7 8 9 10 11 12 13 14 15 16 17 18 19 20 21 22 23 24
000
FTAK31 PANC 270524
TAFAVD
TAF
PAVD 270524Z 2706/2806 VRB03KT P6SM SCT050 BKN080
     FM270800 VRB03KT P6SM -RA OVC045
     FM271100 VRB03KT 6SM -RA BR OVC030
     FM271600 VRB03KT P6SM -SHRA SCT030 BKN050
     FM280000 26007KT P6SM SCT050 BKN090
      AMD LTD TO CLD VIS AND WIND=

USA.gov is the U.S. government's official web portal to all federal, state and local government web resources and services.